createdAt,value
2023-05-14T00:09:21.732Z,70.40
2023-05-14T00:17:20.850Z,70.50
2023-05-14T00:19:47.816Z,71.50
2023-05-14T09:56:55.601Z,1.00
2023-05-14T10:02:02.041Z,1.00
2023-05-14T10:04:28.772Z,1.00
2023-05-14T10:06:55.567Z,1.00
2023-05-14T10:09:23.221Z,1.00
2023-05-14T10:11:52.715Z,1.00
2023-05-14T10:14:28.733Z,1.00
2023-05-14T10:16:56.224Z,1.00
2023-05-14T10:19:24.969Z,1.00
2023-05-14T10:21:59.884Z,1.00
2023-05-14T10:24:26.634Z,1.00
2023-05-14T10:26:53.361Z,1.00
2023-05-14T10:29:20.023Z,1.00
2023-05-14T10:31:50.344Z,1.00
2023-05-14T10:34:40.655Z,1.00
2023-05-14T10:37:09.432Z,1.00
2023-05-14T10:39:45.616Z,1.00
2023-05-14T10:42:35.331Z,1.00
2023-05-14T10:45:07.275Z,1.00
2023-05-14T10:47:38.098Z,1.00
2023-05-14T10:50:09.152Z,1.00
2023-05-14T10:52:36.176Z,1.00
2023-05-14T10:55:04.507Z,1.00
2023-05-14T10:57:32.043Z,1.00
2023-05-14T11:00:00.479Z,1.00
2023-05-14T11:02:29.304Z,1.00
2023-05-14T11:04:59.384Z,1.00
2023-05-14T11:07:37.963Z,1.00
2023-05-14T11:10:15.058Z,1.00
2023-05-14T11:12:46.237Z,1.00
2023-05-14T11:15:17.109Z,1.00
2023-05-14T11:17:44.856Z,1.00
2023-05-14T11:20:12.005Z,1.00
2023-05-14T11:22:39.241Z,1.00
2023-05-14T11:25:06.658Z,1.00
2023-05-14T11:27:38.053Z,1.00
2023-05-14T11:30:05.318Z,1.00
2023-05-14T11:32:35.137Z,1.00
2023-05-14T11:35:01.850Z,1.00
2023-05-14T11:37:30.547Z,1.00
2023-05-14T11:40:00.715Z,1.00
2023-05-14T11:42:27.426Z,1.00
2023-05-14T11:44:54.188Z,1.00
2023-05-14T11:47:21.513Z,1.00
2023-05-14T11:49:48.597Z,1.00
2023-05-14T11:52:15.974Z,1.00
2023-05-14T11:54:43.316Z,1.00
2023-05-14T11:57:14.579Z,1.00
2023-05-14T11:59:41.280Z,1.00
2023-05-14T12:02:15.673Z,1.00
2023-05-14T12:04:43.985Z,1.00
2023-05-14T12:07:15.373Z,1.00
2023-05-14T12:09:48.935Z,1.00
2023-05-14T12:12:22.457Z,1.00
2023-05-14T12:14:49.728Z,1.00
2023-05-14T12:17:22.802Z,1.00
2023-05-14T12:19:50.957Z,1.00
2023-05-14T12:22:19.361Z,1.00
2023-05-14T12:24:56.032Z,1.00
2023-05-14T12:27:24.481Z,1.00
2023-05-14T12:30:01.956Z,1.00
2023-05-14T12:32:37.676Z,1.00
2023-05-14T12:35:04.736Z,1.00
2023-05-14T12:37:31.592Z,1.00
2023-05-14T12:39:58.260Z,1.00
2023-05-14T12:42:24.976Z,1.00
2023-05-14T12:44:51.741Z,1.00
2023-05-14T12:47:18.817Z,1.00
2023-05-14T12:49:45.667Z,1.00
2023-05-14T12:54:43.424Z,1.00
2023-05-14T12:57:10.310Z,1.00
2023-05-14T12:59:36.987Z,1.00
2023-05-14T13:02:03.784Z,1.00
2023-05-14T13:04:30.531Z,1.00
2023-05-14T13:06:57.287Z,1.00
2023-05-14T13:09:23.989Z,1.00
2023-05-14T13:11:50.739Z,1.00
2023-05-14T13:14:18.375Z,1.00
2023-05-14T13:16:47.004Z,1.00
2023-05-14T13:19:13.863Z,1.00
2023-05-14T13:21:40.620Z,1.00
2023-05-14T13:24:07.569Z,1.00
2023-05-14T13:26:34.251Z,1.00
2023-05-14T13:29:01.035Z,1.00
2023-05-14T13:31:27.861Z,1.00
2023-05-14T13:33:54.768Z,1.00
2023-05-14T13:36:21.497Z,1.00
2023-05-14T13:38:48.476Z,1.00
2023-05-14T13:41:15.337Z,1.00
2023-05-14T13:43:42.041Z,1.00
2023-05-14T13:46:08.851Z,1.00
2023-05-14T13:48:37.145Z,1.00
2023-05-14T13:51:03.852Z,1.00
2023-05-14T13:53:30.618Z,1.00
2023-05-14T13:55:58.435Z,1.00
2023-05-14T13:58:25.541Z,1.00
2023-05-14T14:00:52.568Z,1.00
2023-05-14T14:03:19.454Z,1.00
2023-05-14T14:05:46.258Z,1.00
2023-05-14T14:08:23.388Z,1.00
2023-05-14T14:10:51.544Z,1.00
2023-05-14T14:13:18.209Z,1.00
2023-05-14T14:15:45.032Z,1.00
2023-05-14T14:18:11.786Z,1.00
2023-05-14T14:20:38.579Z,1.00
2023-05-14T14:23:05.345Z,1.00
2023-05-14T14:25:32.008Z,1.00
2023-05-14T14:27:58.675Z,1.00
2023-05-14T14:30:25.377Z,1.00
2023-05-14T14:32:52.279Z,1.00
2023-05-14T14:35:19.790Z,1.00
2023-05-14T14:37:48.967Z,1.00
2023-05-14T14:40:16.536Z,1.00
2023-05-14T14:42:43.432Z,1.00
2023-05-14T14:45:10.726Z,1.00
2023-05-14T14:47:37.483Z,1.00
2023-05-14T14:50:04.656Z,1.00
2023-05-14T14:52:31.501Z,1.00
2023-05-14T14:54:58.220Z,1.00
2023-05-14T14:57:24.939Z,1.00
2023-05-14T14:59:51.658Z,1.00
2023-05-14T15:02:18.440Z,1.00
2023-05-14T15:04:45.202Z,1.00
2023-05-14T15:07:11.894Z,1.00
2023-05-14T15:09:38.627Z,1.00
2023-05-14T15:12:06.118Z,1.00
2023-05-14T15:14:32.853Z,1.00
2023-05-14T15:16:59.581Z,1.00
2023-05-14T15:19:26.362Z,1.00
2023-05-14T15:21:53.140Z,1.00
2023-05-14T15:24:19.898Z,1.00
2023-05-14T15:26:46.803Z,1.00
2023-05-14T15:29:13.506Z,1.00
2023-05-14T15:31:41.228Z,1.00
2023-05-14T15:34:08.085Z,1.00
2023-05-14T15:36:34.875Z,1.00
2023-05-14T15:39:01.628Z,1.00
2023-05-14T15:41:28.816Z,1.00
2023-05-14T15:43:56.121Z,1.00
2023-05-14T15:46:24.031Z,1.00
2023-05-14T15:48:50.816Z,1.80
2023-05-14T15:51:17.526Z,5.50
2023-05-14T15:53:44.247Z,11.20
2023-05-14T15:56:10.999Z,16.60
2023-05-14T15:58:37.760Z,19.70
2023-05-14T16:01:04.478Z,23.40
2023-05-14T16:03:31.254Z,25.90
2023-05-14T16:05:58.037Z,31.30
2023-05-14T16:08:24.725Z,33.30
2023-05-14T16:10:51.391Z,27.30
2023-05-14T16:13:18.102Z,32.10
2023-05-14T16:15:44.805Z,28.70
2023-05-14T16:18:11.553Z,25.40
2023-05-14T16:20:38.346Z,23.50
2023-05-14T16:23:05.031Z,29.50
2023-05-14T16:25:31.721Z,27.00
2023-05-14T16:27:58.400Z,16.00
2023-05-14T16:30:25.314Z,16.30
2023-05-14T16:32:52.311Z,19.20
2023-05-14T16:35:18.978Z,23.60
2023-05-14T16:37:45.828Z,23.80
2023-05-14T16:40:12.984Z,26.60
2023-05-14T16:42:39.728Z,27.40
2023-05-14T16:45:06.868Z,25.30
2023-05-14T16:47:33.574Z,25.40
2023-05-14T16:50:00.284Z,26.10
2023-05-14T16:52:27.036Z,26.90
2023-05-14T16:54:53.737Z,30.00
2023-05-14T16:57:20.433Z,28.80
2023-05-14T16:59:47.137Z,31.90
2023-05-14T17:02:13.814Z,39.20
2023-05-14T17:04:42.230Z,36.00
2023-05-14T17:07:09.065Z,34.90
2023-05-14T17:09:35.835Z,35.50
2023-05-14T17:12:02.561Z,33.40
2023-05-14T17:14:29.307Z,26.10
2023-05-14T17:16:56.084Z,26.10
2023-05-14T17:19:22.822Z,27.80
2023-05-14T17:21:49.495Z,28.90
2023-05-14T17:24:16.289Z,24.90
2023-05-14T17:26:42.955Z,25.60
2023-05-14T17:29:09.672Z,25.90
2023-05-14T17:31:36.392Z,23.40
2023-05-14T17:34:03.122Z,23.80
2023-05-14T17:36:31.588Z,22.40
2023-05-14T17:38:58.360Z,24.60
2023-05-14T17:41:25.098Z,28.50
2023-05-14T17:43:54.599Z,26.40
2023-05-14T17:46:21.408Z,28.40
2023-05-14T17:48:48.088Z,25.60
2023-05-14T17:51:14.806Z,26.70
2023-05-14T17:53:41.461Z,26.80
2023-05-14T17:56:08.172Z,25.70
2023-05-14T17:58:36.102Z,27.20
2023-05-14T18:01:03.402Z,27.50
2023-05-14T18:03:30.419Z,27.00
2023-05-14T18:05:57.531Z,27.20
2023-05-14T18:08:24.251Z,28.50
2023-05-14T18:10:50.935Z,28.00
2023-05-14T18:13:17.616Z,27.10
2023-05-14T18:15:44.369Z,29.60
2023-05-14T18:18:11.109Z,31.10
2023-05-14T18:20:37.840Z,30.10
2023-05-14T18:23:04.578Z,30.40
2023-05-14T18:25:31.301Z,30.80
2023-05-14T18:27:58.287Z,30.50
2023-05-14T18:30:24.992Z,33.40
2023-05-14T18:32:51.774Z,32.80
2023-05-14T18:35:18.504Z,35.10
2023-05-14T18:37:45.250Z,37.50
2023-05-14T18:40:16.243Z,39.60
2023-05-14T18:42:44.542Z,41.20
2023-05-14T18:45:11.478Z,43.20
2023-05-14T18:47:39.629Z,41.60
2023-05-14T18:50:09.704Z,49.70
2023-05-14T18:52:36.402Z,51.10
2023-05-14T18:55:03.145Z,48.30
2023-05-14T18:57:32.150Z,56.20
2023-05-14T19:00:01.146Z,59.20
2023-05-14T19:02:28.439Z,60.00
2023-05-14T19:04:55.562Z,62.90
2023-05-14T19:07:22.338Z,62.90
2023-05-14T19:09:49.136Z,66.70
2023-05-14T19:12:16.120Z,62.10
2023-05-14T19:14:42.950Z,61.50
2023-05-14T19:17:09.950Z,62.20
2023-05-14T19:19:37.337Z,66.60
2023-05-14T19:22:04.064Z,67.90
2023-05-14T19:24:30.773Z,69.20
2023-05-14T19:26:57.460Z,69.90
2023-05-14T19:29:24.873Z,70.00
2023-05-14T19:31:51.845Z,71.20
2023-05-14T19:34:18.585Z,70.00
2023-05-14T19:36:45.330Z,71.90
2023-05-14T19:39:12.026Z,71.40
2023-05-14T19:41:38.862Z,68.60
2023-05-14T19:44:05.581Z,67.40
2023-05-14T19:46:32.395Z,70.20
2023-05-14T19:48:59.170Z,71.70
2023-05-14T19:51:25.865Z,70.20
2023-05-14T19:53:52.526Z,71.60
2023-05-14T19:56:19.200Z,71.40
2023-05-14T19:58:45.888Z,71.10
2023-05-14T20:01:12.918Z,71.80
2023-05-14T20:03:39.739Z,71.30
2023-05-14T20:06:07.206Z,68.80
2023-05-14T20:08:33.896Z,70.90
2023-05-14T20:11:00.658Z,70.20
2023-05-14T20:13:27.361Z,71.30
2023-05-14T20:15:55.164Z,70.30
2023-05-14T20:18:22.123Z,72.60
2023-05-14T20:20:49.078Z,72.90
2023-05-14T20:23:15.948Z,72.60
2023-05-14T20:25:43.129Z,73.90
2023-05-14T20:28:10.393Z,74.10
2023-05-14T20:30:37.352Z,75.90
2023-05-14T20:33:04.144Z,75.30
2023-05-14T20:35:31.234Z,74.80
2023-05-14T20:37:58.036Z,74.60
2023-05-14T20:40:25.282Z,74.60
2023-05-14T20:42:52.242Z,75.00
2023-05-14T20:45:19.063Z,76.00
2023-05-14T20:47:45.839Z,76.20
2023-05-14T20:50:13.720Z,76.30
2023-05-14T20:52:40.773Z,76.40
2023-05-14T20:55:07.930Z,76.50
2023-05-14T20:57:34.632Z,78.20
2023-05-14T21:00:02.411Z,80.00
2023-05-14T21:02:29.194Z,79.40
2023-05-14T21:04:56.055Z,78.10
2023-05-14T21:07:22.908Z,79.30
2023-05-14T21:09:52.337Z,79.40
2023-05-14T21:12:19.430Z,79.30
2023-05-14T21:14:46.183Z,78.80
2023-05-14T21:17:12.912Z,79.70
2023-05-14T21:19:39.831Z,77.50
2023-05-14T21:22:06.887Z,79.20
2023-05-14T21:24:33.640Z,79.70
2023-05-14T21:27:00.363Z,79.90
2023-05-14T21:29:27.067Z,79.70
2023-05-14T21:31:53.748Z,78.80
2023-05-14T21:34:20.535Z,81.00
2023-05-14T21:36:47.505Z,80.80
2023-05-14T21:39:14.176Z,82.40
2023-05-14T21:41:41.396Z,79.50
2023-05-14T21:44:08.099Z,78.40
2023-05-14T21:46:34.759Z,78.30
2023-05-14T21:49:01.453Z,78.10
2023-05-14T21:51:28.135Z,78.50
2023-05-14T21:53:54.831Z,77.50
2023-05-14T21:56:22.484Z,78.30
2023-05-14T21:58:49.248Z,79.20
2023-05-14T22:01:16.009Z,79.80
2023-05-14T22:03:42.835Z,79.20
2023-05-14T22:06:09.538Z,77.80
2023-05-14T22:08:36.211Z,78.30
2023-05-14T22:11:02.923Z,79.10
2023-05-14T22:13:29.687Z,78.40
2023-05-14T22:16:09.248Z,78.10
2023-05-14T22:18:39.941Z,78.40
2023-05-14T22:21:06.644Z,78.90
2023-05-14T22:23:33.336Z,78.60
2023-05-14T22:26:00.012Z,79.70
2023-05-14T22:28:26.789Z,80.10
2023-05-14T22:30:53.668Z,79.30
2023-05-14T22:33:20.525Z,79.50
2023-05-14T22:35:47.191Z,79.10
2023-05-14T22:38:14.136Z,78.20
2023-05-14T22:40:40.906Z,78.90
2023-05-14T22:43:07.682Z,78.60
2023-05-14T22:45:34.365Z,78.10
2023-05-14T22:48:01.175Z,78.40
2023-05-14T22:50:27.932Z,78.10
2023-05-14T22:52:54.629Z,77.50
2023-05-14T22:55:21.354Z,77.70
2023-05-14T22:57:48.030Z,77.70
2023-05-14T23:00:15.539Z,77.20
2023-05-14T23:02:42.276Z,76.80
2023-05-14T23:05:09.364Z,77.00
2023-05-14T23:07:36.180Z,78.20
2023-05-14T23:10:02.880Z,75.10
2023-05-14T23:12:29.588Z,76.90
2023-05-14T23:14:56.410Z,76.60
2023-05-14T23:17:23.128Z,77.20
2023-05-14T23:19:49.981Z,75.40
2023-05-14T23:22:16.750Z,76.00
2023-05-14T23:24:43.518Z,74.60
2023-05-14T23:27:11.338Z,75.20
2023-05-14T23:29:38.455Z,74.30
2023-05-14T23:32:05.543Z,74.90
2023-05-14T23:34:32.851Z,74.20
2023-05-14T23:36:59.542Z,74.80
2023-05-14T23:39:26.279Z,74.90
2023-05-14T23:41:53.052Z,74.60
2023-05-14T23:44:19.810Z,74.70
2023-05-14T23:46:46.504Z,74.20
2023-05-14T23:49:13.185Z,74.00
2023-05-14T23:51:39.922Z,74.20
2023-05-14T23:54:06.594Z,74.90
2023-05-14T23:56:33.641Z,74.00
2023-05-14T23:59:00.430Z,75.20
